Ogema, WI

12:59 AM CDT on July 24, 2016 (GMT -0500)
APRSWXNET | | Change Station

Elev 1469 ft 45.40 °N, 90.20 °W | Updated 25 minutes ago

Overcast
Overcast
67 °F
Feels Like 67 °F
N
0
Wind Variable Wind from South
Gusts 0.0 mph

Today
High -- | Low -- °F
--% Chance of Precip.
Yesterday
High -- | Low -- °F
Precip. -- in
Pressure 29.87 in
Visibility 10.0 miles
Clouds Overcast 1400 ft
Dew Point 66 °F
Humidity 96%
Rainfall in
Snow Depth Not available.
5:36 AM 8:37 PM
Waning Gibbous, 79% visible
METAR KPBH 240555Z AUTO 00000KT 10SM OVC014 20/20 A2987 RMK AO2 60019 T01980195 10221 20198 402800165
Pressure 29.87 in
Visibility 10.0 miles
Clouds Overcast 1400 ft
Dew Point 66 °F
Humidity 96%
Rainfall in
Snow Depth Not available.
5:36 AM 8:37 PM
Waning Gibbous, 79% visible
METAR KPBH 240555Z AUTO 00000KT 10SM OVC014 20/20 A2987 RMK AO2 60019 T01980195 10221 20198 402800165

10-Day Weather Forecast

Almanac

Astronomy

Jul. 24, 2016 Rise Set
Actual Time
Civil Twilight
Nautical Twilight
Astronomical Twilight
Moon
Length of Visible Light
Length of Day
Tomorrow will be .
, % of the Moon is Illuminated

Today's Extremes

State Highs State Lows

Community

WunderPhotos

Upload Photos

1,927,039 photos uploaded!

WunderBlog® & News

Nearby

Air Quality

  Air Quality AQ Index Pollutant
Not available.

Snow Depth

Station Depth Elevation

Earthquake Activity

City Distance Mag. Time & Date
Minimum magnitude displayed is 2.5.

Coastal Water Temperatures

Place Temperature

Stations

Nearby Weather Stations

Station Location Temp. Windchill Dew Point Humidity Wind Precip. Elev Updated Type
                   

Watches & Warnings

There are currently no watches in effect.